createdAt,value
2022-12-01T00:01:11.609Z,73
2022-12-01T00:02:13.971Z,73
2022-12-01T00:03:40.902Z,73
2022-12-01T00:05:21.268Z,73
2022-12-01T00:06:23.637Z,73
2022-12-01T00:11:11.438Z,73
2022-12-01T00:12:13.628Z,73
2022-12-01T00:13:15.897Z,73
2022-12-01T00:19:31.285Z,74
2022-12-01T00:20:33.557Z,74
2022-12-01T00:24:30.776Z,74
2022-12-01T00:26:10.776Z,74
2022-12-01T00:27:50.069Z,74
2022-12-01T00:30:20.937Z,74
2022-12-01T00:32:50.247Z,74
2022-12-01T00:36:11.175Z,74
2022-12-01T00:41:11.077Z,74
2022-12-01T00:42:13.625Z,74
2022-12-01T00:45:21.218Z,74
2022-12-01T00:46:23.937Z,74
2022-12-01T00:48:41.466Z,74
2022-12-01T00:50:21.218Z,74
2022-12-01T00:52:00.680Z,74
2022-12-01T00:53:41.493Z,74
2022-12-01T00:55:21.230Z,74
2022-12-01T00:57:00.448Z,74
2022-12-01T00:58:01.866Z,74
2022-12-01T01:01:10.956Z,74
2022-12-01T01:02:13.213Z,74
2022-12-01T01:03:15.717Z,74
2022-12-01T01:04:30.858Z,74
2022-12-01T01:06:11.276Z,74
2022-12-01T01:07:50.870Z,74
2022-12-01T01:12:01.357Z,74
2022-12-01T01:13:41.407Z,74
2022-12-01T01:14:43.837Z,74
2022-12-01T01:15:46.101Z,74
2022-12-01T01:17:00.563Z,74
2022-12-01T01:18:02.196Z,74
2022-12-01T01:19:03.575Z,74
2022-12-01T01:20:21.089Z,74
2022-12-01T01:21:23.498Z,74
2022-12-01T01:22:25.976Z,74
2022-12-01T01:23:27.404Z,74
2022-12-01T01:24:28.837Z,74
2022-12-01T01:25:31.169Z,75
2022-12-01T01:26:32.579Z,74
2022-12-01T01:27:34.878Z,75
2022-12-01T01:28:41.087Z,75
2022-12-01T01:30:21.359Z,75
2022-12-01T01:31:23.718Z,74
2022-12-01T01:32:26.287Z,74
2022-12-01T01:33:41.316Z,75
2022-12-01T01:35:21.138Z,75
2022-12-01T01:39:31.115Z,76
2022-12-01T01:45:21.269Z,76
2022-12-01T01:46:23.610Z,76
2022-12-01T01:50:21.600Z,76
2022-12-01T01:53:41.517Z,76
2022-12-01T01:55:21.505Z,76
2022-12-01T01:56:23.976Z,76
2022-12-01T01:57:26.306Z,76
2022-12-01T01:59:31.117Z,76
2022-12-01T02:00:32.520Z,76
2022-12-01T02:01:35.070Z,76
2022-12-01T02:02:37.373Z,76
2022-12-01T02:04:30.777Z,76
2022-12-01T02:06:10.207Z,76
2022-12-01T02:07:12.006Z,76
2022-12-01T02:09:31.015Z,76
2022-12-01T02:10:33.366Z,76
2022-12-01T02:11:35.866Z,76
2022-12-01T02:12:37.237Z,76
2022-12-01T02:13:39.117Z,76
2022-12-01T02:14:41.531Z,76
2022-12-01T02:17:00.334Z,76
2022-12-01T02:18:01.806Z,76
2022-12-01T02:19:03.207Z,76
2022-12-01T02:20:20.848Z,76
2022-12-01T02:22:00.229Z,76
2022-12-01T02:25:21.086Z,76
2022-12-01T02:26:23.421Z,76
2022-12-01T02:27:26.038Z,76
2022-12-01T02:28:28.318Z,76
2022-12-01T02:31:14.797Z,76
2022-12-01T02:32:17.177Z,76
2022-12-01T02:33:19.328Z,77
2022-12-01T02:35:21.237Z,76
2022-12-01T02:37:00.248Z,76
2022-12-01T02:38:02.507Z,76
2022-12-01T02:39:03.906Z,76
2022-12-01T02:42:00.403Z,76
2022-12-01T02:43:41.298Z,77
2022-12-01T02:46:11.289Z,78
2022-12-01T02:47:13.698Z,78
2022-12-01T02:48:41.020Z,78
2022-12-01T02:52:00.210Z,77
2022-12-01T02:57:00.199Z,76
2022-12-01T02:58:01.603Z,76
2022-12-01T03:00:21.340Z,76
2022-12-01T03:01:23.673Z,76
2022-12-01T03:02:51.023Z,76
2022-12-01T03:03:53.387Z,76
2022-12-01T03:05:21.047Z,76
2022-12-01T03:06:23.366Z,76
2022-12-01T03:07:51.261Z,76
2022-12-01T03:10:21.137Z,76
2022-12-01T03:12:00.080Z,76
2022-12-01T03:13:01.436Z,76
2022-12-01T03:20:20.411Z,76
2022-12-01T03:21:22.769Z,76
2022-12-01T03:22:25.066Z,76
2022-12-01T03:23:27.357Z,76
2022-12-01T03:24:31.246Z,76
2022-12-01T03:25:33.732Z,76
2022-12-01T03:27:00.078Z,76
2022-12-01T03:28:20.563Z,76
2022-12-01T03:29:31.198Z,76
2022-12-01T03:32:00.498Z,75
2022-12-01T03:34:31.406Z,75
2022-12-01T03:36:10.850Z,75
2022-12-01T03:40:20.997Z,75
2022-12-01T03:41:23.728Z,75
2022-12-01T03:42:26.157Z,75
2022-12-01T03:43:28.429Z,75
2022-12-01T03:45:20.937Z,75
2022-12-01T03:47:00.079Z,75
2022-12-01T03:48:41.081Z,75
2022-12-01T03:49:43.367Z,75
2022-12-01T03:50:45.667Z,75
2022-12-01T03:55:21.010Z,75
2022-12-01T03:58:40.698Z,75
2022-12-01T03:59:42.977Z,75
2022-12-01T04:02:00.830Z,75
2022-12-01T04:03:02.307Z,75
2022-12-01T04:08:41.687Z,75
2022-12-01T04:09:44.120Z,75
2022-12-01T04:11:10.565Z,75
2022-12-01T04:12:50.937Z,75
2022-12-01T04:15:20.426Z,75
2022-12-01T04:16:22.911Z,75
2022-12-01T04:17:25.299Z,74
2022-12-01T04:18:27.577Z,74
2022-12-01T04:19:30.096Z,74
2022-12-01T04:22:51.247Z,74
2022-12-01T04:25:20.845Z,74
2022-12-01T04:26:23.137Z,74
2022-12-01T04:27:51.169Z,75
2022-12-01T04:29:31.411Z,75
2022-12-01T04:32:01.477Z,75
2022-12-01T04:33:41.555Z,75
2022-12-01T04:34:43.901Z,75
2022-12-01T04:36:11.008Z,75
2022-12-01T04:40:21.599Z,75
2022-12-01T04:41:24.047Z,75
2022-12-01T04:43:41.134Z,75
2022-12-01T04:44:43.457Z,75
2022-12-01T04:47:50.827Z,75
2022-12-01T04:48:53.108Z,75
2022-12-01T04:52:50.895Z,75
2022-12-01T05:00:20.894Z,75
2022-12-01T05:02:01.369Z,75
2022-12-01T05:03:40.409Z,75
2022-12-01T05:04:42.787Z,74
2022-12-01T05:05:45.137Z,74
2022-12-01T05:07:50.889Z,75
2022-12-01T05:09:31.387Z,74
2022-12-01T05:10:34.077Z,21
2022-12-01T05:12:51.258Z,74
2022-12-01T05:13:53.660Z,74
2022-12-01T05:15:21.477Z,74
2022-12-01T05:17:00.666Z,74
2022-12-01T05:23:05.106Z,74
2022-12-01T05:24:07.078Z,74
2022-12-01T05:25:08.433Z,74
2022-12-01T05:26:09.939Z,74
2022-12-01T05:27:11.325Z,74
2022-12-01T05:28:41.165Z,74
2022-12-01T05:31:10.094Z,74
2022-12-01T05:32:11.515Z,74
2022-12-01T05:34:31.638Z,74
2022-12-01T05:44:31.006Z,74
2022-12-01T05:45:33.541Z,74
2022-12-01T05:49:30.856Z,74
2022-12-01T05:52:51.007Z,74
2022-12-01T05:55:20.424Z,75
2022-12-01T05:58:41.302Z,75
2022-12-01T05:59:43.587Z,75
2022-12-01T06:01:10.054Z,75
2022-12-01T06:04:30.932Z,75
2022-12-01T06:08:41.053Z,75
2022-12-01T06:09:42.501Z,75
2022-12-01T06:14:29.937Z,75
2022-12-01T06:15:31.339Z,75
2022-12-01T06:17:49.936Z,76
2022-12-01T06:19:30.135Z,76
2022-12-01T06:20:32.538Z,76
2022-12-01T06:21:34.858Z,76
2022-12-01T06:22:50.877Z,76
2022-12-01T06:23:53.184Z,76
2022-12-01T06:26:09.978Z,76
2022-12-01T06:27:51.397Z,76
2022-12-01T06:28:53.846Z,76
2022-12-01T06:31:10.436Z,75
2022-12-01T06:32:50.499Z,75
2022-12-01T06:35:19.881Z,75
2022-12-01T06:36:21.313Z,75
2022-12-01T06:37:22.838Z,75
2022-12-01T06:38:24.236Z,75
2022-12-01T06:39:25.642Z,75
2022-12-01T06:40:26.989Z,75
2022-12-01T06:41:28.366Z,75
2022-12-01T06:42:29.776Z,75
2022-12-01T06:43:31.132Z,75
2022-12-01T06:44:32.508Z,75
2022-12-01T06:45:33.962Z,75
2022-12-01T06:46:35.517Z,75
2022-12-01T06:47:36.900Z,75
2022-12-01T06:48:38.237Z,75
2022-12-01T06:49:39.569Z,75
2022-12-01T06:52:01.029Z,75
2022-12-01T06:53:40.177Z,75
2022-12-01T06:59:29.995Z,75
2022-12-01T07:01:59.960Z,74
2022-12-01T07:03:40.474Z,74
2022-12-01T07:05:20.187Z,74
2022-12-01T07:06:59.927Z,74
2022-12-01T07:08:01.320Z,74
2022-12-01T07:09:02.828Z,74
2022-12-01T07:10:04.164Z,74
2022-12-01T07:11:05.556Z,74
2022-12-01T07:12:06.966Z,74
2022-12-01T07:14:29.977Z,74
2022-12-01T07:15:31.394Z,74
2022-12-01T07:16:32.882Z,74
2022-12-01T07:17:34.448Z,74
2022-12-01T07:20:19.965Z,74
2022-12-01T07:21:21.310Z,74
2022-12-01T07:22:22.645Z,74
2022-12-01T07:23:24.018Z,74
2022-12-01T07:24:29.939Z,74
2022-12-01T07:25:31.369Z,74
2022-12-01T07:26:32.838Z,74
2022-12-01T07:27:50.031Z,74
2022-12-01T07:28:51.369Z,74
2022-12-01T07:29:52.703Z,74
2022-12-01T07:30:54.291Z,74
2022-12-01T07:31:55.840Z,73
2022-12-01T07:32:57.178Z,73
2022-12-01T07:33:58.515Z,73
2022-12-01T07:34:59.967Z,73
2022-12-01T07:36:01.357Z,73
2022-12-01T07:37:02.723Z,73
2022-12-01T07:38:04.106Z,73
2022-12-01T07:39:05.481Z,73
2022-12-01T07:40:06.859Z,73
2022-12-01T07:41:08.249Z,73
2022-12-01T07:42:09.646Z,73
2022-12-01T07:43:39.884Z,74
2022-12-01T07:45:20.366Z,73
2022-12-01T07:46:22.999Z,74
2022-12-01T07:47:24.929Z,74
2022-12-01T07:48:26.317Z,73
2022-12-01T07:49:27.670Z,73
2022-12-01T07:50:29.048Z,73
2022-12-01T07:51:30.407Z,73
2022-12-01T07:52:31.838Z,73
2022-12-01T07:53:40.277Z,73
2022-12-01T07:54:41.746Z,73
2022-12-01T07:55:43.158Z,73
2022-12-01T07:56:44.618Z,73
2022-12-01T07:57:50.507Z,73
2022-12-01T07:58:51.859Z,73
2022-12-01T08:00:20.025Z,73
2022-12-01T08:01:21.456Z,73
2022-12-01T08:02:23.062Z,73
2022-12-01T08:03:24.479Z,73
2022-12-01T08:04:29.898Z,73
2022-12-01T08:06:09.930Z,73
2022-12-01T08:07:11.284Z,73
2022-12-01T08:08:12.746Z,73
2022-12-01T08:09:14.217Z,73
2022-12-01T08:10:15.646Z,73
2022-12-01T08:11:17.043Z,73
2022-12-01T08:12:18.397Z,73
2022-12-01T08:14:30.194Z,73
2022-12-01T08:15:31.578Z,73
2022-12-01T08:16:59.919Z,73
2022-12-01T08:18:01.309Z,73
2022-12-01T08:19:02.719Z,73
2022-12-01T08:20:04.087Z,73
2022-12-01T08:21:05.546Z,73
2022-12-01T08:22:06.965Z,73
2022-12-01T08:23:08.364Z,72
2022-12-01T08:24:10.059Z,72
2022-12-01T08:25:11.447Z,72
2022-12-01T08:26:12.812Z,72
2022-12-01T08:27:50.482Z,72
2022-12-01T08:28:51.814Z,72
2022-12-01T08:29:53.256Z,72
2022-12-01T08:30:54.667Z,72
2022-12-01T08:31:56.035Z,72
2022-12-01T08:32:57.406Z,72
2022-12-01T08:33:59.165Z,72
2022-12-01T08:35:00.548Z,72
2022-12-01T08:36:10.237Z,72
2022-12-01T08:37:49.878Z,71
2022-12-01T08:38:51.188Z,71
2022-12-01T08:39:52.568Z,71
2022-12-01T08:40:53.986Z,71
2022-12-01T08:41:55.399Z,71
2022-12-01T08:42:56.786Z,71
2022-12-01T08:45:20.264Z,71
2022-12-01T08:46:59.958Z,71
2022-12-01T08:48:01.412Z,71
2022-12-01T08:50:19.991Z,71
2022-12-01T08:51:21.379Z,71
2022-12-01T08:53:44.084Z,71
2022-12-01T08:54:46.643Z,71
2022-12-01T08:55:47.978Z,71
2022-12-01T08:56:49.309Z,71
2022-12-01T08:57:50.697Z,71
2022-12-01T08:58:52.960Z,70
2022-12-01T09:00:20.256Z,70
2022-12-01T09:01:21.696Z,70
2022-12-01T09:02:23.211Z,70
2022-12-01T09:03:24.723Z,70
2022-12-01T09:04:26.136Z,70
2022-12-01T09:05:27.525Z,70
2022-12-01T09:06:28.967Z,70
2022-12-01T09:08:39.908Z,70
2022-12-01T09:09:41.307Z,70
2022-12-01T09:10:42.657Z,70
2022-12-01T09:11:44.131Z,70
2022-12-01T09:12:45.485Z,70
2022-12-01T09:13:51.482Z,70
2022-12-01T09:15:20.467Z,70
2022-12-01T09:17:00.117Z,70
2022-12-01T09:18:40.206Z,70
2022-12-01T09:20:19.887Z,70
2022-12-01T09:21:59.970Z,70
2022-12-01T09:23:40.487Z,70
2022-12-01T09:24:41.888Z,70
2022-12-01T09:25:43.288Z,70
2022-12-01T09:26:44.669Z,70
2022-12-01T09:27:46.086Z,70
2022-12-01T09:28:47.436Z,70
2022-12-01T09:30:20.197Z,70
2022-12-01T09:32:00.027Z,70
2022-12-01T09:33:40.055Z,70
2022-12-01T09:36:09.907Z,70
2022-12-01T09:37:11.315Z,70
2022-12-01T09:38:12.696Z,70
2022-12-01T09:39:15.516Z,70
2022-12-01T09:40:16.966Z,70
2022-12-01T09:41:18.357Z,70
2022-12-01T09:43:39.906Z,70
2022-12-01T09:45:20.347Z,70
2022-12-01T09:46:21.735Z,70
2022-12-01T09:47:23.149Z,70
2022-12-01T09:48:24.470Z,70
2022-12-01T09:49:30.057Z,70
2022-12-01T09:51:09.897Z,70
2022-12-01T09:52:11.307Z,70
2022-12-01T09:53:12.722Z,70
2022-12-01T09:54:14.082Z,70
2022-12-01T09:55:20.347Z,70
2022-12-01T09:56:21.785Z,70
2022-12-01T09:57:23.128Z,70
2022-12-01T09:58:24.476Z,70
2022-12-01T09:59:25.825Z,70
2022-12-01T10:00:27.297Z,70
2022-12-01T10:01:29.078Z,69
2022-12-01T10:02:50.206Z,69
2022-12-01T10:03:51.606Z,69
2022-12-01T10:05:20.133Z,69
2022-12-01T10:06:29.321Z,69
2022-12-01T10:07:50.150Z,69
2022-12-01T10:08:51.594Z,69
2022-12-01T10:09:52.986Z,69
2022-12-01T10:10:54.398Z,69
2022-12-01T10:11:55.775Z,69
2022-12-01T10:12:57.328Z,69
2022-12-01T10:15:19.896Z,69
2022-12-01T10:16:21.347Z,69
2022-12-01T10:17:22.759Z,69
2022-12-01T10:18:24.339Z,69
2022-12-01T10:20:20.157Z,69
2022-12-01T10:22:00.336Z,69
2022-12-01T10:23:01.676Z,69
2022-12-01T10:24:03.184Z,69
2022-12-01T10:25:04.526Z,69
2022-12-01T10:26:05.939Z,69
2022-12-01T10:27:07.386Z,69
2022-12-01T10:28:08.778Z,69
2022-12-01T10:29:11.048Z,69
2022-12-01T10:30:12.451Z,69
2022-12-01T10:31:13.897Z,69
2022-12-01T10:32:15.367Z,69
2022-12-01T10:33:16.835Z,69
2022-12-01T10:35:20.348Z,69
2022-12-01T10:36:21.746Z,69
2022-12-01T10:37:23.230Z,68
2022-12-01T10:41:10.025Z,68
2022-12-01T10:42:50.475Z,68
2022-12-01T10:44:30.037Z,68
2022-12-01T10:45:31.466Z,68
2022-12-01T10:46:32.946Z,68
2022-12-01T10:47:51.797Z,68
2022-12-01T10:48:55.073Z,68
2022-12-01T10:50:20.482Z,68
2022-12-01T10:51:21.882Z,68
2022-12-01T10:52:23.342Z,68
2022-12-01T10:53:24.780Z,68
2022-12-01T10:54:26.186Z,68
2022-12-01T10:55:27.570Z,68
2022-12-01T10:56:29.971Z,68
2022-12-01T10:57:31.380Z,68
2022-12-01T10:58:33.906Z,68
2022-12-01T10:59:35.355Z,68
2022-12-01T11:00:58.389Z,68
2022-12-01T11:02:00.648Z,68
2022-12-01T11:03:02.441Z,68
2022-12-01T11:04:03.906Z,68
2022-12-01T11:05:05.259Z,68
2022-12-01T11:06:09.895Z,68
2022-12-01T11:07:11.296Z,68
2022-12-01T11:08:12.656Z,68
2022-12-01T11:09:30.009Z,68
2022-12-01T11:10:31.426Z,68
2022-12-01T11:11:33.332Z,68
2022-12-01T11:13:40.197Z,68
2022-12-01T11:14:42.476Z,68
2022-12-01T11:15:43.847Z,68
2022-12-01T11:16:45.312Z,68
2022-12-01T11:17:46.727Z,68
2022-12-01T11:18:48.229Z,68
2022-12-01T11:19:49.925Z,68
2022-12-01T11:20:51.460Z,68
2022-12-01T11:21:52.856Z,68
2022-12-01T11:22:54.276Z,68
2022-12-01T11:23:55.728Z,68
2022-12-01T11:24:57.125Z,68
2022-12-01T11:25:58.509Z,68
2022-12-01T11:27:00.122Z,68
2022-12-01T11:28:01.507Z,68
2022-12-01T11:29:02.956Z,68
2022-12-01T11:30:06.594Z,68
2022-12-01T11:31:10.126Z,68
2022-12-01T11:32:11.583Z,68
2022-12-01T11:33:13.013Z,68
2022-12-01T11:34:30.157Z,68
2022-12-01T11:35:31.526Z,68
2022-12-01T11:36:32.880Z,68
2022-12-01T11:37:34.266Z,68
2022-12-01T11:38:40.466Z,68
2022-12-01T11:42:49.880Z,67
2022-12-01T11:44:00.959Z,67
2022-12-01T11:45:02.923Z,67
2022-12-01T11:46:11.554Z,67
2022-12-01T11:47:22.979Z,68
2022-12-01T11:48:25.579Z,68
2022-12-01T11:49:31.700Z,67
2022-12-01T11:50:34.058Z,68
2022-12-01T11:51:35.482Z,68
2022-12-01T11:52:36.933Z,68
2022-12-01T11:53:38.307Z,68
2022-12-01T11:54:39.675Z,68
2022-12-01T11:55:41.046Z,68
2022-12-01T11:58:39.979Z,67
2022-12-01T12:01:59.883Z,67
2022-12-01T12:03:01.476Z,66
2022-12-01T12:04:02.869Z,66
2022-12-01T12:05:04.298Z,66
2022-12-01T12:07:00.078Z,67
2022-12-01T12:09:29.925Z,67
2022-12-01T12:10:31.293Z,67
2022-12-01T12:11:32.768Z,67
2022-12-01T12:12:34.210Z,67
2022-12-01T12:13:35.616Z,66
2022-12-01T12:14:37.158Z,66
2022-12-01T12:15:38.547Z,66
2022-12-01T12:16:39.941Z,67
2022-12-01T12:18:39.984Z,66
2022-12-01T12:20:10.087Z,66
2022-12-01T12:21:11.966Z,66
2022-12-01T12:25:20.157Z,66
2022-12-01T12:27:00.064Z,66
2022-12-01T12:28:02.724Z,66
2022-12-01T12:29:08.216Z,66
2022-12-01T12:31:10.077Z,66
2022-12-01T12:33:39.871Z,66
2022-12-01T12:35:20.024Z,66
2022-12-01T12:37:00.147Z,66
2022-12-01T12:41:10.317Z,66
2022-12-01T12:45:20.056Z,66
2022-12-01T12:46:59.884Z,66
2022-12-01T12:48:01.275Z,66
2022-12-01T12:49:29.888Z,66
2022-12-01T12:50:31.304Z,66
2022-12-01T12:52:02.648Z,66
2022-12-01T12:53:06.607Z,66
2022-12-01T12:54:08.058Z,66
2022-12-01T12:55:09.474Z,66
2022-12-01T12:56:10.894Z,66
2022-12-01T12:57:12.209Z,66
2022-12-01T12:58:13.550Z,66
2022-12-01T12:59:16.176Z,66
2022-12-01T13:00:17.545Z,66
2022-12-01T13:01:19.033Z,66
2022-12-01T13:03:40.195Z,67
2022-12-01T13:04:41.766Z,66
2022-12-01T13:05:43.122Z,66
2022-12-01T13:06:44.518Z,66
2022-12-01T13:07:45.936Z,66
2022-12-01T13:08:47.451Z,66
2022-12-01T13:10:19.996Z,67
2022-12-01T13:11:21.373Z,67
2022-12-01T13:12:22.827Z,67
2022-12-01T13:13:24.219Z,67
2022-12-01T13:14:25.606Z,67
2022-12-01T13:15:27.055Z,67
2022-12-01T13:17:00.958Z,67
2022-12-01T13:18:40.137Z,67
2022-12-01T13:19:41.571Z,67
2022-12-01T13:22:49.846Z,67
2022-12-01T13:23:51.506Z,67
2022-12-01T13:24:52.959Z,67
2022-12-01T13:25:54.369Z,67
2022-12-01T13:26:59.865Z,67
2022-12-01T13:30:20.498Z,67
2022-12-01T13:31:21.919Z,68
2022-12-01T13:32:23.348Z,68
2022-12-01T13:33:24.738Z,68
2022-12-01T13:34:29.809Z,68
2022-12-01T13:35:31.252Z,68
2022-12-01T13:36:48.153Z,68
2022-12-01T13:37:49.579Z,68
2022-12-01T13:38:51.006Z,67
2022-12-01T13:39:52.331Z,67
2022-12-01T13:41:10.304Z,67
2022-12-01T13:42:11.654Z,67
2022-12-01T13:43:12.998Z,67
2022-12-01T13:44:18.617Z,67
2022-12-01T13:45:21.257Z,67
2022-12-01T13:46:22.714Z,68
2022-12-01T13:47:50.407Z,68
2022-12-01T13:48:51.808Z,68
2022-12-01T13:49:53.404Z,68
2022-12-01T13:50:54.931Z,68
2022-12-01T13:52:49.986Z,68
2022-12-01T13:53:51.367Z,68
2022-12-01T13:54:52.718Z,68
2022-12-01T13:55:54.065Z,68
2022-12-01T13:56:55.485Z,68
2022-12-01T13:57:56.890Z,68
2022-12-01T13:58:58.286Z,68
2022-12-01T14:00:20.211Z,68
2022-12-01T14:01:22.228Z,68
2022-12-01T14:02:50.248Z,68
2022-12-01T14:03:51.659Z,68
2022-12-01T14:04:53.057Z,68
2022-12-01T14:05:54.416Z,68
2022-12-01T14:06:55.890Z,68
2022-12-01T14:07:57.347Z,68
2022-12-01T14:08:58.776Z,68
2022-12-01T14:10:00.215Z,68
2022-12-01T14:11:01.592Z,68
2022-12-01T14:12:02.989Z,68
2022-12-01T14:13:04.467Z,68
2022-12-01T14:14:05.849Z,68
2022-12-01T14:15:08.157Z,68
2022-12-01T14:16:09.577Z,68
2022-12-01T14:18:40.002Z,69
2022-12-01T14:19:41.427Z,69
2022-12-01T14:20:42.767Z,69
2022-12-01T14:22:50.401Z,69
2022-12-01T14:24:30.279Z,69
2022-12-01T14:25:31.664Z,69
2022-12-01T14:26:33.079Z,69
2022-12-01T14:27:34.477Z,69
2022-12-01T14:28:36.606Z,69
2022-12-01T14:29:37.957Z,69
2022-12-01T14:31:10.480Z,69
2022-12-01T14:32:49.837Z,69
2022-12-01T14:33:51.270Z,69
2022-12-01T14:35:19.837Z,69
2022-12-01T14:37:00.086Z,69
2022-12-01T14:38:01.865Z,69
2022-12-01T14:40:20.427Z,69
2022-12-01T14:42:00.178Z,69
2022-12-01T14:43:01.538Z,69
2022-12-01T14:44:29.913Z,69
2022-12-01T14:45:31.395Z,69
2022-12-01T14:47:00.339Z,69
2022-12-01T14:48:01.736Z,69
2022-12-01T14:49:30.437Z,69
2022-12-01T14:50:31.830Z,70
2022-12-01T14:52:50.080Z,70
2022-12-01T14:54:30.152Z,70
2022-12-01T14:55:31.598Z,70
2022-12-01T14:56:32.968Z,70
2022-12-01T14:57:34.377Z,70
2022-12-01T14:58:35.936Z,70
2022-12-01T14:59:37.316Z,70
2022-12-01T15:01:10.495Z,70
2022-12-01T15:02:12.201Z,70
2022-12-01T15:04:29.846Z,70
2022-12-01T15:06:10.127Z,70
2022-12-01T15:07:11.492Z,70
2022-12-01T15:08:40.095Z,70
2022-12-01T15:09:42.317Z,70
2022-12-01T15:10:44.627Z,70
2022-12-01T15:11:46.027Z,70
2022-12-01T15:12:49.987Z,70
2022-12-01T15:15:23.843Z,71
2022-12-01T15:16:25.635Z,71
2022-12-01T15:17:27.099Z,71
2022-12-01T15:18:28.517Z,71
2022-12-01T15:19:29.954Z,71
2022-12-01T15:21:10.187Z,71
2022-12-01T15:22:11.585Z,71
2022-12-01T15:23:12.930Z,71
2022-12-01T15:24:14.308Z,71
2022-12-01T15:25:19.819Z,71
2022-12-01T15:26:21.196Z,71
2022-12-01T15:27:50.247Z,72
2022-12-01T15:28:51.669Z,72
2022-12-01T15:30:19.833Z,72
2022-12-01T15:31:21.283Z,72
2022-12-01T15:32:22.737Z,72
2022-12-01T15:33:27.732Z,72
2022-12-01T15:34:29.682Z,72
2022-12-01T15:35:31.056Z,72
2022-12-01T15:36:32.416Z,72
2022-12-01T15:37:33.836Z,72
2022-12-01T15:38:35.237Z,72
2022-12-01T15:39:36.613Z,72
2022-12-01T15:42:09.478Z,72
2022-12-01T15:44:29.974Z,72
2022-12-01T15:47:00.448Z,72
2022-12-01T15:48:01.838Z,72
2022-12-01T15:49:03.319Z,72
2022-12-01T15:50:04.710Z,72
2022-12-01T15:51:10.277Z,72
2022-12-01T15:52:11.757Z,72
2022-12-01T15:54:30.168Z,72
2022-12-01T15:55:31.587Z,72
2022-12-01T15:56:33.022Z,72
2022-12-01T15:57:34.407Z,72
2022-12-01T15:58:35.798Z,72
2022-12-01T15:59:37.163Z,72
2022-12-01T16:00:38.568Z,72
2022-12-01T16:02:00.069Z,72
2022-12-01T16:03:02.115Z,72
2022-12-01T16:04:04.567Z,72
2022-12-01T16:05:06.008Z,72
2022-12-01T16:06:07.422Z,72
2022-12-01T16:07:09.547Z,72
2022-12-01T16:08:13.355Z,72
2022-12-01T16:09:15.117Z,72
2022-12-01T16:10:16.516Z,72
2022-12-01T16:11:59.899Z,72
2022-12-01T16:13:01.277Z,72
2022-12-01T16:14:02.777Z,72
2022-12-01T16:15:20.156Z,72
2022-12-01T16:16:21.937Z,72
2022-12-01T16:18:39.814Z,73
2022-12-01T16:19:41.216Z,73
2022-12-01T16:20:42.624Z,73
2022-12-01T16:22:00.358Z,73
2022-12-01T16:23:01.666Z,73
2022-12-01T16:24:03.015Z,73
2022-12-01T16:25:21.247Z,73
2022-12-01T16:26:22.657Z,73
2022-12-01T16:27:24.038Z,73
2022-12-01T16:28:25.486Z,73
2022-12-01T16:29:29.821Z,73
2022-12-01T16:30:31.280Z,73
2022-12-01T16:31:32.763Z,73
2022-12-01T16:32:34.177Z,73
2022-12-01T16:33:40.096Z,73
2022-12-01T16:35:19.966Z,73
2022-12-01T16:36:25.475Z,73
2022-12-01T16:37:28.038Z,73
2022-12-01T16:38:29.488Z,73
2022-12-01T16:39:30.856Z,73
2022-12-01T16:40:32.256Z,73
2022-12-01T16:43:40.000Z,72
2022-12-01T16:44:41.380Z,72
2022-12-01T16:48:40.147Z,73
2022-12-01T16:49:41.588Z,73
2022-12-01T16:50:42.997Z,73
2022-12-01T16:51:57.002Z,73
2022-12-01T16:52:58.970Z,73
2022-12-01T16:54:00.577Z,73
2022-12-01T16:55:20.457Z,73
2022-12-01T16:56:21.848Z,73
2022-12-01T16:57:50.395Z,73
2022-12-01T16:58:51.746Z,73
2022-12-01T16:59:53.166Z,73
2022-12-01T17:00:54.671Z,73
2022-12-01T17:01:56.273Z,73
2022-12-01T17:02:57.785Z,73
2022-12-01T17:04:01.369Z,73
2022-12-01T17:05:06.136Z,73
2022-12-01T17:07:00.256Z,73
2022-12-01T17:08:39.957Z,74
2022-12-01T17:12:00.021Z,74
2022-12-01T17:13:41.036Z,74
2022-12-01T17:14:42.471Z,74
2022-12-01T17:15:44.851Z,74
2022-12-01T17:16:46.928Z,74
2022-12-01T17:17:50.010Z,74
2022-12-01T17:18:51.408Z,74
2022-12-01T17:19:53.766Z,74
2022-12-01T17:20:55.557Z,74
2022-12-01T17:22:00.246Z,74
2022-12-01T17:23:02.465Z,74
2022-12-01T17:24:31.036Z,74
2022-12-01T17:25:33.646Z,74
2022-12-01T17:26:35.925Z,74
2022-12-01T17:27:50.226Z,74
2022-12-01T17:28:51.588Z,74
2022-12-01T17:32:00.860Z,74
2022-12-01T17:33:40.674Z,74
2022-12-01T17:34:43.113Z,74
2022-12-01T17:36:10.977Z,74
2022-12-01T17:39:29.837Z,75
2022-12-01T17:42:00.287Z,75
2022-12-01T17:44:31.216Z,75
2022-12-01T17:45:32.627Z,75
2022-12-01T17:46:34.995Z,75
2022-12-01T17:47:37.539Z,75
2022-12-01T17:48:41.678Z,75
2022-12-01T17:49:44.037Z,75
2022-12-01T17:50:46.317Z,75
2022-12-01T17:51:48.615Z,75
2022-12-01T17:52:50.238Z,75
2022-12-01T17:53:51.658Z,75
2022-12-01T17:54:53.111Z,75
2022-12-01T17:56:10.879Z,75
2022-12-01T17:57:13.248Z,75
2022-12-01T17:58:14.628Z,76
2022-12-01T17:59:16.029Z,76
2022-12-01T18:00:17.771Z,76
2022-12-01T18:01:19.643Z,76
2022-12-01T18:02:50.012Z,76
2022-12-01T18:06:10.296Z,76
2022-12-01T18:07:11.797Z,76
2022-12-01T18:08:13.142Z,76
2022-12-01T18:09:15.517Z,76
2022-12-01T18:10:16.927Z,76
2022-12-01T18:11:18.344Z,76
2022-12-01T18:12:50.267Z,76
2022-12-01T18:16:10.379Z,76
2022-12-01T18:17:50.527Z,76
2022-12-01T18:22:50.941Z,76
2022-12-01T18:26:15.343Z,75
2022-12-01T18:30:20.569Z,75
2022-12-01T18:32:50.265Z,75
2022-12-01T18:33:51.627Z,75
2022-12-01T18:36:10.267Z,75
2022-12-01T18:42:50.301Z,75
2022-12-01T18:44:30.416Z,75
2022-12-01T18:48:39.936Z,75
2022-12-01T18:49:41.347Z,75
2022-12-01T18:56:59.957Z,76
2022-12-01T18:58:01.511Z,76
2022-12-01T18:59:02.908Z,76
2022-12-01T19:01:10.212Z,76
2022-12-01T19:02:50.019Z,76
2022-12-01T19:08:40.018Z,76
2022-12-01T19:09:41.415Z,76
2022-12-01T19:11:59.936Z,76
2022-12-01T19:13:01.325Z,76
2022-12-01T19:16:10.207Z,76
2022-12-01T19:17:49.977Z,76
2022-12-01T19:18:51.413Z,76
2022-12-01T19:21:59.816Z,76
2022-12-01T19:24:29.837Z,76
2022-12-01T19:25:31.256Z,76
2022-12-01T19:26:32.655Z,76
2022-12-01T19:27:34.247Z,76
2022-12-01T19:28:40.436Z,76
2022-12-01T19:29:41.845Z,76
2022-12-01T19:32:50.354Z,77
2022-12-01T19:37:00.115Z,77
2022-12-01T19:38:01.727Z,77
2022-12-01T19:45:19.988Z,77
2022-12-01T19:49:30.650Z,78
2022-12-01T19:51:10.216Z,78
2022-12-01T19:52:11.604Z,78
2022-12-01T19:54:30.376Z,78
2022-12-01T19:55:31.886Z,78
2022-12-01T19:57:50.809Z,78
2022-12-01T19:58:52.218Z,78
2022-12-01T19:59:53.846Z,77
2022-12-01T20:00:55.379Z,77
2022-12-01T20:01:56.815Z,77
2022-12-01T20:02:58.219Z,77
2022-12-01T20:03:59.617Z,77
2022-12-01T20:05:01.030Z,77
2022-12-01T20:06:02.417Z,77
2022-12-01T20:07:04.111Z,77
2022-12-01T20:09:29.837Z,77
2022-12-01T20:10:31.307Z,77
2022-12-01T20:12:00.242Z,77
2022-12-01T20:14:30.068Z,77
2022-12-01T20:16:10.439Z,77
2022-12-01T20:17:15.819Z,77
2022-12-01T20:18:40.266Z,77
2022-12-01T20:21:10.094Z,77
2022-12-01T20:22:11.556Z,77
2022-12-01T20:23:13.037Z,77
2022-12-01T20:25:19.780Z,76
2022-12-01T20:27:49.963Z,76
2022-12-01T20:28:51.324Z,76
2022-12-01T20:30:20.113Z,76
2022-12-01T20:31:21.564Z,76
2022-12-01T20:32:49.965Z,76
2022-12-01T20:33:51.409Z,76
2022-12-01T20:34:53.255Z,76
2022-12-01T20:35:54.738Z,77
2022-12-01T20:36:59.980Z,77
2022-12-01T20:38:01.365Z,77
2022-12-01T20:41:09.814Z,77
2022-12-01T20:42:11.208Z,77
2022-12-01T20:43:40.109Z,77
2022-12-01T20:45:20.268Z,77
2022-12-01T20:46:21.746Z,77
2022-12-01T20:47:23.108Z,77
2022-12-01T20:49:29.818Z,77
2022-12-01T20:50:31.197Z,77
2022-12-01T20:51:32.587Z,77
2022-12-01T20:52:34.053Z,77
2022-12-01T20:53:35.739Z,77
2022-12-01T20:55:19.856Z,77
2022-12-01T20:57:00.010Z,77
2022-12-01T20:58:40.298Z,77
2022-12-01T20:59:41.698Z,77
2022-12-01T21:03:40.357Z,77
2022-12-01T21:04:41.797Z,77
2022-12-01T21:05:43.188Z,77
2022-12-01T21:06:44.558Z,77
2022-12-01T21:08:40.413Z,77
2022-12-01T21:10:20.473Z,77
2022-12-01T21:11:21.877Z,77
2022-12-01T21:12:23.266Z,77
2022-12-01T21:13:40.253Z,77
2022-12-01T21:14:41.644Z,77
2022-12-01T21:16:13.992Z,77
2022-12-01T21:17:16.147Z,77
2022-12-01T21:19:29.814Z,77
2022-12-01T21:20:31.495Z,77
2022-12-01T21:21:33.058Z,77